createdAt,value
2023-05-05T00:00:28.365Z,6.95
2023-05-05T00:02:51.621Z,4.72
2023-05-05T00:08:56.459Z,5.37
2023-05-05T00:11:19.135Z,4.90
2023-05-05T00:13:42.144Z,7.13
2023-05-05T00:16:07.651Z,6.00
2023-05-05T00:18:30.516Z,4.93
2023-05-05T00:20:53.288Z,5.60
2023-05-05T00:23:16.699Z,4.20
2023-05-05T00:25:39.124Z,6.20
2023-05-05T00:28:05.628Z,5.33
2023-05-05T00:30:36.370Z,7.00
2023-05-05T00:32:59.101Z,4.43
2023-05-05T00:35:22.597Z,4.65
2023-05-05T00:37:45.204Z,5.97
2023-05-05T00:40:08.532Z,4.97
2023-05-05T00:42:39.460Z,5.50
2023-05-05T00:45:26.464Z,4.73
2023-05-05T00:47:50.400Z,5.50
2023-05-05T00:50:15.528Z,8.87
2023-05-05T00:52:38.376Z,6.60
2023-05-05T00:55:04.385Z,5.37
2023-05-05T00:57:27.986Z,4.33
2023-05-05T01:03:25.489Z,5.97
2023-05-05T01:05:48.349Z,4.95
2023-05-05T01:08:15.583Z,5.77
2023-05-05T01:10:43.919Z,4.87
2023-05-05T01:13:06.485Z,5.37
2023-05-05T01:15:33.887Z,5.83
2023-05-05T01:18:11.172Z,5.57
2023-05-05T01:20:41.922Z,5.77
2023-05-05T01:23:06.909Z,5.67
2023-05-05T01:25:50.219Z,5.40
2023-05-05T01:28:12.587Z,7.73
2023-05-05T01:30:38.177Z,6.57
2023-05-05T01:33:04.722Z,8.93
2023-05-05T01:35:32.098Z,5.00
2023-05-05T01:38:08.973Z,6.37
2023-05-05T01:40:34.589Z,4.77
2023-05-05T01:42:57.201Z,4.73
2023-05-05T01:45:21.414Z,6.23
2023-05-05T01:47:44.342Z,5.90
2023-05-05T01:50:08.510Z,7.23
2023-05-05T01:52:31.392Z,7.53
2023-05-05T01:54:54.127Z,5.07
2023-05-05T01:57:30.952Z,6.37
2023-05-05T01:59:54.247Z,7.30
2023-05-05T02:02:18.007Z,6.77
2023-05-05T02:04:43.476Z,5.37
2023-05-05T02:07:06.794Z,7.00
2023-05-05T02:09:29.709Z,5.33
2023-05-05T02:11:53.584Z,5.60
2023-05-05T02:14:18.021Z,7.73
2023-05-05T02:16:41.351Z,7.97
2023-05-05T02:19:06.916Z,6.30
2023-05-05T02:21:29.538Z,6.73
2023-05-05T02:23:52.170Z,5.93
2023-05-05T02:26:18.879Z,4.73
2023-05-05T02:29:06.302Z,5.90
2023-05-05T02:31:29.553Z,7.27
2023-05-05T02:33:54.145Z,8.50
2023-05-05T02:36:24.214Z,5.77
2023-05-05T02:38:54.344Z,5.70
2023-05-05T02:41:19.092Z,6.83
2023-05-05T02:43:43.322Z,5.97
2023-05-05T02:46:06.688Z,5.40
2023-05-05T02:48:29.835Z,6.53
2023-05-05T02:50:56.486Z,5.80
2023-05-05T02:53:26.874Z,6.63
2023-05-05T02:55:53.705Z,8.00
2023-05-05T02:58:26.914Z,8.43
2023-05-05T03:00:49.699Z,6.50
2023-05-05T03:03:18.980Z,6.23
2023-05-05T03:06:07.370Z,7.07
2023-05-05T03:09:06.466Z,5.90
2023-05-05T03:11:31.492Z,10.67
2023-05-05T03:14:01.986Z,9.00
2023-05-05T03:16:25.870Z,6.97
2023-05-05T03:18:49.346Z,7.83
2023-05-05T03:21:12.674Z,6.27
2023-05-05T03:23:37.545Z,5.77
2023-05-05T03:26:04.153Z,7.73
2023-05-05T03:28:37.047Z,6.03
2023-05-05T03:31:10.717Z,9.47
2023-05-05T03:33:34.415Z,8.00
2023-05-05T03:35:57.400Z,6.37
2023-05-05T03:38:19.707Z,5.93
2023-05-05T03:40:44.654Z,11.43
2023-05-05T03:43:09.843Z,5.70
2023-05-05T03:45:33.224Z,9.73
2023-05-05T03:47:55.581Z,7.43
2023-05-05T03:50:18.092Z,6.07
2023-05-05T03:52:40.610Z,9.40
2023-05-05T03:55:02.927Z,6.40
2023-05-05T03:57:25.216Z,10.17
2023-05-05T03:59:47.561Z,7.13
2023-05-05T04:02:10.897Z,6.73
2023-05-05T04:04:33.287Z,6.20
2023-05-05T04:06:55.810Z,7.10
2023-05-05T04:09:18.130Z,7.07
2023-05-05T04:11:40.483Z,8.63
2023-05-05T04:14:03.439Z,7.53
2023-05-05T04:16:26.320Z,7.33
2023-05-05T04:18:48.926Z,6.90
2023-05-05T04:21:11.351Z,6.80
2023-05-05T04:23:36.315Z,9.60
2023-05-05T04:25:58.595Z,6.57
2023-05-05T04:28:22.258Z,9.30
2023-05-05T04:30:53.549Z,8.10
2023-05-05T04:33:16.062Z,8.10
2023-05-05T04:35:38.593Z,6.47
2023-05-05T04:38:01.161Z,7.43
2023-05-05T04:40:24.765Z,7.27
2023-05-05T04:42:47.200Z,6.20
2023-05-05T04:45:10.251Z,8.70
2023-05-05T04:47:39.501Z,6.90
2023-05-05T04:50:02.497Z,8.80
2023-05-05T04:52:34.198Z,5.90
2023-05-05T04:54:56.907Z,6.00
2023-05-05T04:57:19.352Z,6.00
2023-05-05T04:59:44.416Z,7.77
2023-05-05T05:02:06.804Z,10.40
2023-05-05T05:04:29.406Z,8.53
2023-05-05T05:07:15.224Z,5.97
2023-05-05T05:09:37.802Z,8.47
2023-05-05T05:12:01.309Z,6.97
2023-05-05T05:14:24.033Z,8.23
2023-05-05T05:16:52.853Z,5.40
2023-05-05T05:19:17.927Z,6.37
2023-05-05T05:21:40.435Z,6.27
2023-05-05T05:24:02.783Z,7.87
2023-05-05T05:26:25.442Z,7.30
2023-05-05T05:28:48.036Z,5.20
2023-05-05T05:31:10.575Z,5.40
2023-05-05T05:33:42.674Z,5.93
2023-05-05T05:36:25.892Z,4.88
2023-05-05T05:38:48.772Z,5.07
2023-05-05T05:41:11.736Z,4.38
2023-05-05T05:43:35.864Z,8.75
2023-05-05T05:46:11.189Z,5.88
2023-05-05T05:48:35.177Z,5.57
2023-05-05T05:56:51.199Z,5.90
2023-05-05T05:59:13.754Z,3.33
2023-05-05T06:01:37.107Z,3.00
2023-05-05T06:04:00.014Z,3.95
2023-05-05T06:06:28.014Z,3.92
2023-05-05T06:08:50.707Z,3.45
2023-05-05T06:11:13.173Z,4.90
2023-05-05T06:13:38.858Z,8.27
2023-05-05T06:16:02.093Z,4.47
2023-05-05T06:18:24.558Z,4.53
2023-05-05T06:20:49.950Z,6.43
2023-05-05T06:23:31.159Z,5.38
2023-05-05T06:29:05.360Z,3.58
2023-05-05T06:35:13.422Z,6.25
2023-05-05T06:37:41.239Z,7.50
2023-05-05T06:40:09.272Z,4.63
2023-05-05T06:42:33.795Z,5.82
2023-05-05T06:44:59.377Z,8.30
2023-05-05T06:47:21.824Z,8.77
2023-05-05T06:49:51.875Z,3.58
2023-05-05T06:52:20.659Z,5.55
2023-05-05T06:54:44.385Z,9.23
2023-05-05T06:57:07.048Z,3.97
2023-05-05T07:02:26.861Z,3.92
2023-05-05T07:04:58.524Z,3.28
2023-05-05T07:07:38.899Z,6.90
2023-05-05T07:10:10.184Z,4.57
2023-05-05T07:12:36.043Z,6.35
2023-05-05T07:14:58.501Z,8.60
2023-05-05T07:17:20.937Z,7.95
2023-05-05T07:19:44.267Z,6.25
2023-05-05T07:22:06.599Z,6.25
2023-05-05T07:24:28.977Z,8.57
2023-05-05T07:26:51.439Z,5.38
2023-05-05T07:29:14.499Z,5.38
2023-05-05T07:31:36.924Z,4.53
2023-05-05T07:33:59.214Z,5.65
2023-05-05T07:36:22.265Z,10.60
2023-05-05T07:38:44.647Z,5.15
2023-05-05T07:41:06.916Z,7.95
2023-05-05T07:43:55.520Z,5.05
2023-05-05T07:46:18.368Z,4.72
2023-05-05T07:48:41.590Z,4.40
2023-05-05T07:51:04.331Z,7.20
2023-05-05T07:53:26.956Z,7.38
2023-05-05T07:55:49.579Z,7.25
2023-05-05T07:58:14.740Z,4.40
2023-05-05T08:00:43.968Z,5.55
2023-05-05T08:03:08.966Z,6.78
2023-05-05T08:05:33.096Z,8.55
2023-05-05T08:07:56.111Z,8.45
2023-05-05T08:10:18.496Z,7.88
2023-05-05T08:12:41.074Z,6.43
2023-05-05T08:15:03.735Z,3.65
2023-05-05T08:20:54.369Z,5.88
2023-05-05T08:23:19.450Z,4.30
2023-05-05T08:25:42.663Z,4.57
2023-05-05T08:30:41.890Z,3.92
2023-05-05T08:33:04.540Z,3.10
2023-05-05T08:35:27.060Z,5.40
2023-05-05T08:37:51.938Z,4.38
2023-05-05T08:40:14.520Z,6.20
2023-05-05T08:42:39.121Z,4.95
2023-05-05T08:45:05.727Z,5.88
2023-05-05T08:47:28.678Z,2.03
2023-05-05T08:49:53.879Z,5.65
2023-05-05T08:52:17.333Z,5.55
2023-05-05T08:55:10.277Z,4.10
2023-05-05T08:57:40.959Z,3.72
2023-05-05T09:00:04.204Z,4.55
2023-05-05T09:02:30.559Z,4.95
2023-05-05T09:05:20.288Z,6.72
2023-05-05T09:07:54.509Z,4.78
2023-05-05T09:10:21.119Z,3.97
2023-05-05T09:12:46.604Z,5.93
2023-05-05T09:15:12.457Z,3.25
2023-05-05T09:17:34.845Z,2.90
2023-05-05T09:20:07.438Z,3.65
2023-05-05T09:22:44.315Z,5.70
2023-05-05T09:25:08.291Z,2.90
2023-05-05T09:27:31.033Z,3.72
2023-05-05T09:29:59.670Z,3.72
2023-05-05T09:32:22.153Z,3.05
2023-05-05T09:34:44.416Z,4.35
2023-05-05T09:37:09.800Z,6.88
2023-05-05T09:39:32.250Z,3.42
2023-05-05T09:41:54.628Z,4.18
2023-05-05T09:44:40.210Z,2.55
2023-05-05T09:47:29.495Z,2.75
2023-05-05T09:49:59.284Z,6.43
2023-05-05T09:52:21.909Z,3.05
2023-05-05T09:54:45.074Z,3.38
2023-05-05T09:57:07.616Z,3.85
2023-05-05T09:59:30.257Z,3.25
2023-05-05T10:01:52.636Z,4.00
2023-05-05T10:04:31.594Z,1.77
2023-05-05T10:06:53.878Z,3.42
2023-05-05T10:09:16.294Z,3.53
2023-05-05T10:11:42.883Z,3.88
2023-05-05T10:14:07.504Z,2.45
2023-05-05T10:16:31.180Z,2.30
2023-05-05T10:18:53.510Z,4.07
2023-05-05T10:21:18.894Z,5.10
2023-05-05T10:23:48.428Z,3.10
2023-05-05T10:26:11.307Z,2.88
2023-05-05T10:28:56.555Z,1.85
2023-05-05T10:31:26.865Z,4.68
2023-05-05T10:33:54.579Z,2.85
2023-05-05T10:36:17.199Z,1.65
2023-05-05T10:38:39.796Z,3.58
2023-05-05T10:41:02.448Z,5.28
2023-05-05T10:43:25.222Z,1.50
2023-05-05T10:45:47.744Z,3.05
2023-05-05T10:48:13.316Z,3.70
2023-05-05T10:51:21.099Z,5.25
2023-05-05T10:54:16.306Z,4.88
2023-05-05T10:56:40.860Z,2.63
2023-05-05T10:59:03.790Z,2.60
2023-05-05T11:01:30.506Z,2.70
2023-05-05T11:03:53.016Z,3.22
2023-05-05T11:06:15.438Z,3.17
2023-05-05T11:08:41.540Z,3.85
2023-05-05T11:11:04.226Z,5.07
2023-05-05T11:13:26.894Z,5.13
2023-05-05T11:15:57.860Z,6.57
2023-05-05T11:18:39.289Z,3.65
2023-05-05T11:21:01.522Z,2.47
2023-05-05T11:23:24.323Z,3.15
2023-05-05T11:25:47.280Z,3.78
2023-05-05T11:28:12.639Z,4.10
2023-05-05T11:30:36.038Z,5.00
2023-05-05T11:33:26.275Z,2.50
2023-05-05T11:36:06.823Z,2.83
2023-05-05T11:38:41.712Z,3.60
2023-05-05T11:41:11.110Z,3.92
2023-05-05T11:43:34.459Z,3.60
2023-05-05T11:46:15.242Z,3.47
2023-05-05T11:48:53.514Z,2.90
2023-05-05T11:51:17.604Z,3.08
2023-05-05T11:53:46.523Z,3.78
2023-05-05T11:56:10.009Z,2.15
2023-05-05T11:58:32.449Z,4.13
2023-05-05T12:00:54.768Z,3.47
2023-05-05T12:03:17.195Z,2.67
2023-05-05T12:05:43.137Z,3.13
2023-05-05T12:08:06.066Z,4.70
2023-05-05T12:10:28.955Z,3.22
2023-05-05T12:12:53.158Z,2.20
2023-05-05T12:15:17.832Z,2.92
2023-05-05T12:17:42.650Z,4.10
2023-05-05T12:20:05.529Z,5.50
2023-05-05T12:22:27.970Z,8.52
2023-05-05T12:24:57.282Z,3.33
2023-05-05T12:27:22.810Z,2.78
2023-05-05T12:29:45.443Z,4.15
2023-05-05T12:32:07.959Z,2.83
2023-05-05T12:34:30.773Z,4.25
2023-05-05T12:36:53.345Z,3.60
2023-05-05T12:39:15.872Z,4.45
2023-05-05T12:44:44.211Z,3.33
2023-05-05T12:47:07.013Z,3.63
2023-05-05T12:49:30.383Z,2.90
2023-05-05T12:51:56.962Z,2.95
2023-05-05T12:58:01.568Z,6.63
2023-05-05T13:00:33.344Z,3.85
2023-05-05T13:02:56.593Z,6.00
2023-05-05T13:09:33.960Z,4.63
2023-05-05T13:12:05.747Z,5.40
2023-05-05T13:14:31.534Z,3.72
2023-05-05T13:16:56.809Z,3.50
2023-05-05T13:19:19.389Z,4.50
2023-05-05T13:21:44.158Z,3.13
2023-05-05T13:49:27.187Z,2.50
2023-05-05T13:51:53.131Z,2.90
2023-05-05T14:18:34.660Z,2.63
2023-05-05T14:23:59.990Z,2.47
2023-05-05T14:26:50.101Z,4.30
2023-05-05T14:29:13.212Z,2.17
2023-05-05T14:31:39.661Z,3.15
2023-05-05T14:34:02.027Z,1.58
2023-05-05T14:36:24.661Z,3.13
2023-05-05T14:38:47.113Z,3.33
2023-05-05T14:41:09.747Z,2.90
2023-05-05T14:43:32.407Z,4.57
2023-05-05T14:45:55.263Z,2.78
2023-05-05T14:48:18.048Z,3.88
2023-05-05T14:50:42.487Z,2.80
2023-05-05T14:53:09.467Z,1.77
2023-05-05T14:55:32.866Z,2.30
2023-05-05T14:57:55.529Z,3.28
2023-05-05T15:00:18.057Z,2.67
2023-05-05T15:02:40.405Z,2.10
2023-05-05T15:05:02.740Z,2.30
2023-05-05T15:07:28.646Z,4.50
2023-05-05T15:09:51.124Z,4.20
2023-05-05T15:12:13.429Z,1.70
2023-05-05T15:14:36.710Z,2.80
2023-05-05T15:16:59.208Z,1.20
2023-05-05T15:19:22.125Z,2.97
2023-05-05T15:21:44.582Z,3.15
2023-05-05T15:24:07.406Z,3.80
2023-05-05T15:26:29.801Z,1.60
2023-05-05T15:28:52.777Z,2.75
2023-05-05T15:31:15.153Z,3.20
2023-05-05T15:33:37.720Z,2.95
2023-05-05T15:36:00.611Z,2.97
2023-05-05T15:38:23.082Z,2.60
2023-05-05T15:40:48.236Z,2.00
2023-05-05T15:43:12.207Z,1.60
2023-05-05T15:45:44.558Z,3.63
2023-05-05T15:48:07.441Z,1.52
2023-05-05T15:50:39.150Z,1.83
2023-05-05T15:53:01.485Z,2.60
2023-05-05T15:55:26.814Z,1.42
2023-05-05T15:57:49.453Z,2.92
2023-05-05T16:00:15.181Z,3.10
2023-05-05T16:02:37.753Z,3.05
2023-05-05T16:05:06.975Z,2.67
2023-05-05T16:07:30.063Z,2.55
2023-05-05T16:10:21.605Z,1.75
2023-05-05T16:12:44.084Z,3.75
2023-05-05T16:18:11.269Z,2.65
2023-05-05T16:20:33.810Z,1.75
2023-05-05T16:22:56.485Z,1.60
2023-05-05T16:25:19.869Z,2.13
2023-05-05T16:27:45.527Z,3.17
2023-05-05T16:30:10.360Z,2.20
2023-05-05T16:44:02.737Z,2.78
2023-05-05T16:46:25.451Z,1.67
2023-05-05T16:48:48.296Z,1.17
2023-05-05T16:51:13.693Z,1.05
2023-05-05T16:53:49.258Z,2.10
2023-05-05T16:56:15.807Z,2.58
2023-05-05T16:59:03.706Z,1.05
2023-05-05T17:01:26.422Z,2.33
2023-05-05T17:06:26.968Z,6.50
2023-05-05T17:15:46.581Z,0.30
2023-05-05T17:18:15.874Z,1.17
2023-05-05T17:20:44.648Z,1.30
2023-05-05T17:23:14.661Z,1.05
2023-05-05T17:29:03.043Z,1.23
2023-05-05T17:31:29.260Z,2.88
2023-05-05T17:37:51.806Z,1.70
2023-05-05T17:43:10.438Z,1.05
2023-05-05T17:46:42.720Z,1.33
2023-05-05T17:49:08.605Z,0.80
2023-05-05T17:51:39.378Z,0.88
2023-05-05T17:54:04.022Z,1.30
2023-05-05T17:56:57.543Z,0.40
2023-05-05T17:59:29.559Z,0.80
2023-05-05T18:02:33.518Z,1.23
2023-05-05T18:05:09.385Z,0.85
2023-05-05T18:10:36.841Z,0.57
2023-05-05T18:16:48.658Z,1.65
2023-05-05T18:19:18.908Z,1.25
2023-05-05T18:22:21.068Z,2.50
2023-05-05T18:25:08.712Z,2.50
2023-05-05T18:27:33.189Z,2.38
2023-05-05T18:30:06.701Z,0.50
2023-05-05T18:32:30.096Z,1.00
2023-05-05T18:34:52.995Z,0.85
2023-05-05T18:40:16.995Z,1.55
2023-05-05T18:42:44.520Z,0.80
2023-05-05T18:45:25.144Z,1.65
2023-05-05T18:47:47.828Z,2.75
2023-05-05T18:56:01.662Z,0.77
2023-05-05T18:58:33.586Z,0.70
2023-05-05T19:00:59.087Z,1.90
2023-05-05T19:03:22.381Z,1.47
2023-05-05T19:05:45.122Z,1.42
2023-05-05T19:10:50.899Z,0.80
2023-05-05T19:13:46.288Z,1.10
2023-05-05T19:16:10.359Z,0.80
2023-05-05T19:21:10.068Z,2.10
2023-05-05T19:23:36.697Z,1.20
2023-05-05T19:29:07.080Z,3.37
2023-05-05T19:31:31.400Z,1.10
2023-05-05T19:33:56.607Z,1.17
2023-05-05T19:36:37.558Z,1.90
2023-05-05T19:39:04.080Z,1.70
2023-05-05T19:41:26.407Z,2.47
2023-05-05T19:43:51.766Z,1.03
2023-05-05T19:46:15.356Z,1.10
2023-05-05T19:48:38.376Z,1.57
2023-05-05T19:51:06.774Z,1.67
2023-05-05T19:53:36.545Z,1.20
2023-05-05T19:55:59.555Z,3.87
2023-05-05T19:58:22.831Z,1.90
2023-05-05T20:00:45.425Z,1.40
2023-05-05T20:03:09.083Z,1.33
2023-05-05T20:05:51.191Z,2.87
2023-05-05T20:08:13.662Z,2.07
2023-05-05T20:11:11.255Z,1.60
2023-05-05T20:13:34.394Z,3.13
2023-05-05T20:15:56.863Z,2.37
2023-05-05T20:18:19.589Z,1.87
2023-05-05T20:20:42.441Z,2.80
2023-05-05T20:23:12.258Z,1.40
2023-05-05T20:25:35.040Z,3.37
2023-05-05T20:27:57.680Z,2.33
2023-05-05T20:30:22.707Z,1.87
2023-05-05T20:32:45.361Z,4.20
2023-05-05T20:35:08.556Z,2.87
2023-05-05T20:37:31.122Z,1.43
2023-05-05T20:39:54.135Z,4.40
2023-05-05T20:42:16.647Z,1.60
2023-05-05T20:44:40.248Z,3.77
2023-05-05T20:47:05.085Z,1.70
2023-05-05T20:49:27.579Z,2.90
2023-05-05T20:51:50.265Z,2.30
2023-05-05T20:54:12.518Z,2.43
2023-05-05T20:56:34.872Z,1.73
2023-05-05T20:58:57.339Z,1.87
2023-05-05T21:01:20.234Z,3.33
2023-05-05T21:03:42.805Z,2.40
2023-05-05T21:06:05.467Z,4.23
2023-05-05T21:08:27.734Z,1.87
2023-05-05T21:10:50.081Z,1.90
2023-05-05T21:13:12.330Z,2.67
2023-05-05T21:15:37.228Z,2.33
2023-05-05T21:17:59.777Z,1.60
2023-05-05T21:20:22.202Z,1.77
2023-05-05T21:22:44.468Z,1.77
2023-05-05T21:25:10.907Z,1.60
2023-05-05T21:27:33.083Z,3.30
2023-05-05T21:29:55.371Z,1.87
2023-05-05T21:32:18.000Z,2.10
2023-05-05T21:34:40.435Z,2.33
2023-05-05T21:37:02.751Z,2.10
2023-05-05T21:39:25.090Z,1.70
2023-05-05T21:41:47.301Z,1.70
2023-05-05T21:44:09.582Z,2.37
2023-05-05T21:46:31.816Z,5.10
2023-05-05T21:48:54.025Z,2.70
2023-05-05T21:51:16.271Z,1.60
2023-05-05T21:53:38.481Z,1.87
2023-05-05T21:56:01.003Z,2.60
2023-05-05T21:58:24.843Z,1.90
2023-05-05T22:00:49.951Z,2.77
2023-05-05T22:03:12.456Z,2.63
2023-05-05T22:05:34.970Z,6.90
2023-05-05T22:07:57.400Z,3.27
2023-05-05T22:10:19.586Z,3.77
2023-05-05T22:12:41.947Z,2.20
2023-05-05T22:15:04.298Z,2.30
2023-05-05T22:17:26.552Z,2.47
2023-05-05T22:19:48.834Z,1.77
2023-05-05T22:22:11.176Z,3.33
2023-05-05T22:24:33.443Z,2.50
2023-05-05T22:26:57.455Z,2.00
2023-05-05T22:29:19.652Z,2.23
2023-05-05T22:31:41.885Z,1.80
2023-05-05T22:34:04.238Z,1.60
2023-05-05T22:36:27.662Z,1.70
2023-05-05T22:38:50.062Z,3.17
2023-05-05T22:41:12.764Z,2.00
2023-05-05T22:43:34.978Z,2.00
2023-05-05T22:45:57.201Z,2.10
2023-05-05T22:48:19.708Z,2.43
2023-05-05T22:50:41.984Z,2.17
2023-05-05T22:53:04.516Z,3.13
2023-05-05T22:55:27.281Z,2.13
2023-05-05T22:57:49.880Z,1.77
2023-05-05T23:00:12.431Z,2.40
2023-05-05T23:02:34.935Z,2.40
2023-05-05T23:04:57.247Z,3.43
2023-05-05T23:07:19.812Z,2.93
2023-05-05T23:09:42.181Z,3.60
2023-05-05T23:12:04.587Z,1.70
2023-05-05T23:14:26.828Z,3.13
2023-05-05T23:17:01.273Z,1.70
2023-05-05T23:19:24.218Z,5.20
2023-05-05T23:21:53.204Z,2.57
2023-05-05T23:24:16.160Z,2.67
2023-05-05T23:26:38.421Z,2.57
2023-05-05T23:29:00.966Z,2.00
2023-05-05T23:31:26.417Z,2.10
2023-05-05T23:33:48.963Z,2.93
2023-05-05T23:36:11.293Z,3.37
2023-05-05T23:38:33.526Z,2.73
2023-05-05T23:40:55.887Z,2.03
2023-05-05T23:43:18.239Z,4.00
2023-05-05T23:45:41.013Z,2.03
2023-05-05T23:48:03.517Z,1.70
2023-05-05T23:50:25.899Z,1.93
2023-05-05T23:52:48.355Z,5.70
2023-05-05T23:55:10.954Z,1.80
2023-05-05T23:57:33.412Z,2.77
2023-05-05T23:59:55.662Z,1.60
